createdAt,value
2022-10-17T00:00:22.838Z,4.60
2022-10-17T00:02:51.453Z,4.73
2022-10-17T00:05:22.150Z,5.00
2022-10-17T00:07:50.743Z,5.33
2022-10-17T00:10:22.563Z,5.00
2022-10-17T00:12:51.336Z,5.13
2022-10-17T00:15:24.705Z,5.30
2022-10-17T00:17:53.395Z,5.30
2022-10-17T00:20:22.092Z,5.30
2022-10-17T00:23:04.765Z,5.10
2022-10-17T00:25:42.763Z,5.83
2022-10-17T00:28:11.387Z,5.60
2022-10-17T00:30:47.827Z,5.57
2022-10-17T00:33:21.864Z,5.63
2022-10-17T00:35:50.302Z,6.23
2022-10-17T00:38:18.688Z,6.37
2022-10-17T00:40:47.425Z,5.73
2022-10-17T00:43:17.468Z,6.50
2022-10-17T00:45:47.267Z,6.33
2022-10-17T00:48:17.992Z,5.93
2022-10-17T00:50:48.412Z,6.53
2022-10-17T00:53:16.750Z,6.27
2022-10-17T00:55:46.821Z,6.40
2022-10-17T00:58:15.509Z,6.47
2022-10-17T01:00:44.373Z,6.43
2022-10-17T01:03:14.186Z,6.90
2022-10-17T01:05:42.972Z,7.60
2022-10-17T01:08:11.447Z,7.23
2022-10-17T01:10:42.514Z,7.50
2022-10-17T01:13:12.528Z,8.07
2022-10-17T01:15:43.461Z,6.90
2022-10-17T01:18:16.034Z,7.23
2022-10-17T01:20:59.234Z,7.50
2022-10-17T01:23:40.265Z,7.23
2022-10-17T01:26:11.637Z,7.83
2022-10-17T01:28:48.893Z,7.90
2022-10-17T01:31:18.657Z,8.43
2022-10-17T01:33:48.542Z,8.67
2022-10-17T01:36:18.778Z,7.80
2022-10-17T01:38:47.947Z,8.17
2022-10-17T01:41:17.148Z,8.77
2022-10-17T01:43:46.486Z,9.00
2022-10-17T01:46:15.170Z,8.87
2022-10-17T01:48:45.087Z,9.47
2022-10-17T01:51:14.799Z,8.70
2022-10-17T01:53:43.643Z,8.77
2022-10-17T01:56:12.162Z,9.23
2022-10-17T01:58:41.943Z,9.57
2022-10-17T02:01:10.473Z,8.67
2022-10-17T02:03:39.019Z,9.23
2022-10-17T02:06:08.815Z,9.50
2022-10-17T02:08:42.292Z,9.63
2022-10-17T02:11:11.878Z,8.93
2022-10-17T02:13:42.865Z,9.37
2022-10-17T02:16:15.088Z,9.37
2022-10-17T02:18:49.151Z,9.13
2022-10-17T02:21:20.760Z,9.20
2022-10-17T02:23:50.930Z,9.27
2022-10-17T02:26:20.358Z,9.70
2022-10-17T02:28:49.441Z,9.40
2022-10-17T02:31:18.551Z,9.63
2022-10-17T02:33:47.399Z,9.80
2022-10-17T02:36:16.471Z,9.67
2022-10-17T02:38:46.197Z,9.57
2022-10-17T02:41:15.448Z,9.97
2022-10-17T02:43:45.443Z,9.77
2022-10-17T02:46:20.886Z,9.80
2022-10-17T02:48:49.552Z,10.20
2022-10-17T02:51:18.820Z,9.57
2022-10-17T02:53:50.017Z,10.27
2022-10-17T02:56:19.379Z,10.27
2022-10-17T02:58:48.213Z,9.30
2022-10-17T03:01:16.675Z,10.07
2022-10-17T03:03:45.271Z,9.73
2022-10-17T03:06:13.679Z,9.63
2022-10-17T03:08:41.924Z,9.53
2022-10-17T03:11:11.735Z,9.60
2022-10-17T03:13:40.150Z,9.70
2022-10-17T03:16:08.586Z,9.63
2022-10-17T03:18:36.994Z,9.47
2022-10-17T03:21:05.365Z,9.60
2022-10-17T03:23:33.708Z,9.40
2022-10-17T03:26:04.858Z,9.80
2022-10-17T03:28:34.597Z,9.43
2022-10-17T03:31:03.849Z,10.23
2022-10-17T03:33:32.412Z,9.93
2022-10-17T03:36:00.806Z,9.90
2022-10-17T03:38:29.233Z,9.97
2022-10-17T03:40:57.611Z,9.33
2022-10-17T03:43:26.071Z,10.43
2022-10-17T03:45:55.814Z,9.93
2022-10-17T03:48:24.324Z,9.70
2022-10-17T03:50:52.676Z,10.00
2022-10-17T03:53:21.287Z,10.43
2022-10-17T03:55:49.732Z,9.90
2022-10-17T03:58:18.083Z,9.67
2022-10-17T04:00:46.414Z,9.57
2022-10-17T04:03:17.322Z,9.17
2022-10-17T04:05:45.813Z,9.63
2022-10-17T04:08:14.133Z,9.47
2022-10-17T04:10:42.545Z,9.73
2022-10-17T04:13:10.889Z,10.03
2022-10-17T04:15:39.239Z,9.63
2022-10-17T04:18:07.628Z,9.93
2022-10-17T04:20:37.860Z,9.43
2022-10-17T04:23:06.722Z,9.43
2022-10-17T04:25:36.711Z,8.97
2022-10-17T04:28:05.501Z,9.30
2022-10-17T04:30:34.019Z,9.23
2022-10-17T04:33:02.387Z,9.00
2022-10-17T04:35:31.216Z,8.50
2022-10-17T04:38:01.172Z,8.97
2022-10-17T04:40:29.674Z,8.47
2022-10-17T04:42:58.111Z,8.10
2022-10-17T04:45:26.446Z,8.73
2022-10-17T04:47:54.849Z,8.20
2022-10-17T04:50:23.321Z,8.27
2022-10-17T04:52:51.707Z,8.93
2022-10-17T04:55:21.772Z,8.50
2022-10-17T04:57:50.201Z,8.63
2022-10-17T05:00:18.813Z,8.50
2022-10-17T05:02:47.215Z,8.00
2022-10-17T05:05:15.673Z,9.07
2022-10-17T05:07:44.048Z,8.67
2022-10-17T05:10:12.489Z,8.90
2022-10-17T05:12:42.323Z,8.37
2022-10-17T05:15:11.134Z,8.77
2022-10-17T05:17:39.590Z,8.57
2022-10-17T05:20:08.686Z,8.37
2022-10-17T05:22:39.678Z,8.63
2022-10-17T05:25:10.904Z,8.10
2022-10-17T05:27:39.835Z,8.07
2022-10-17T05:30:10.394Z,8.77
2022-10-17T05:32:38.792Z,8.07
2022-10-17T05:35:07.760Z,8.50
2022-10-17T05:37:36.380Z,8.30
2022-10-17T05:40:05.070Z,8.07
2022-10-17T05:42:33.891Z,8.37
2022-10-17T05:45:02.562Z,8.80
2022-10-17T05:47:32.774Z,8.80
2022-10-17T05:50:01.534Z,8.77
2022-10-17T05:52:30.402Z,8.30
2022-10-17T05:54:58.945Z,7.97
2022-10-17T05:57:27.331Z,8.40
2022-10-17T05:59:55.681Z,8.90
2022-10-17T06:02:24.071Z,8.77
2022-10-17T06:04:53.924Z,8.90
2022-10-17T06:07:22.229Z,8.30
2022-10-17T06:09:51.022Z,8.00
2022-10-17T06:12:19.983Z,8.37
2022-10-17T06:14:48.643Z,8.63
2022-10-17T06:17:17.193Z,8.57
2022-10-17T06:19:45.684Z,8.63
2022-10-17T06:22:15.662Z,8.73
2022-10-17T06:24:44.310Z,7.90
2022-10-17T06:27:12.674Z,8.93
2022-10-17T06:29:40.987Z,8.50
2022-10-17T06:32:12.637Z,8.77
2022-10-17T06:34:44.843Z,8.03
2022-10-17T06:37:13.397Z,9.23
2022-10-17T06:39:43.119Z,9.70
2022-10-17T06:42:11.573Z,9.33
2022-10-17T06:44:41.188Z,8.77
2022-10-17T06:47:09.591Z,9.53
2022-10-17T06:49:37.967Z,9.13
2022-10-17T06:52:06.669Z,8.80
2022-10-17T06:54:35.456Z,9.10
2022-10-17T06:57:05.466Z,9.13
2022-10-17T06:59:33.799Z,8.90
2022-10-17T07:02:02.515Z,9.57
2022-10-17T07:04:30.938Z,9.23
2022-10-17T07:09:32.975Z,9.20
2022-10-17T07:12:01.386Z,8.57
2022-10-17T07:14:32.923Z,9.07
2022-10-17T07:17:01.245Z,9.10
2022-10-17T07:19:29.564Z,8.50
2022-10-17T07:21:57.974Z,9.50
2022-10-17T07:24:26.430Z,9.50
2022-10-17T07:26:54.817Z,9.93
2022-10-17T07:29:23.114Z,9.57
2022-10-17T07:31:53.002Z,9.90
2022-10-17T07:34:21.341Z,9.80
2022-10-17T07:36:49.620Z,11.13
2022-10-17T07:39:18.210Z,10.47
2022-10-17T07:41:47.580Z,10.33
2022-10-17T07:44:16.039Z,9.97
2022-10-17T07:46:44.591Z,10.47
2022-10-17T07:49:14.665Z,10.47
2022-10-17T07:51:43.380Z,10.27
2022-10-17T07:54:16.103Z,10.80
2022-10-17T07:56:50.526Z,10.27
2022-10-17T07:59:19.425Z,11.07
2022-10-17T08:01:47.993Z,10.53
2022-10-17T08:04:17.816Z,10.27
2022-10-17T08:06:46.296Z,11.23
2022-10-17T08:09:32.858Z,11.00
2022-10-17T08:12:01.200Z,9.43
2022-10-17T08:14:29.613Z,10.80
2022-10-17T08:16:58.009Z,9.90
2022-10-17T08:19:27.957Z,11.20
2022-10-17T08:21:57.301Z,10.47
2022-10-17T08:24:25.600Z,10.13
2022-10-17T08:26:54.264Z,10.30
2022-10-17T08:29:42.510Z,11.13
2022-10-17T08:32:14.440Z,10.77
2022-10-17T08:34:44.337Z,11.10
2022-10-17T08:37:13.706Z,11.17
2022-10-17T08:39:42.428Z,10.40
2022-10-17T08:42:24.572Z,10.03
2022-10-17T08:44:55.156Z,10.57
2022-10-17T08:47:26.128Z,11.10
2022-10-17T08:49:56.327Z,11.20
2022-10-17T08:52:26.739Z,11.13
2022-10-17T08:54:55.091Z,11.33
2022-10-17T08:57:23.574Z,11.00
2022-10-17T08:59:52.504Z,10.73
2022-10-17T09:02:26.538Z,11.47
2022-10-17T09:05:02.105Z,11.87
2022-10-17T09:07:34.763Z,11.70
2022-10-17T09:10:05.886Z,11.00
2022-10-17T09:12:36.809Z,11.37
2022-10-17T09:15:10.487Z,11.20
2022-10-17T09:17:41.365Z,11.67
2022-10-17T09:20:14.010Z,10.90
2022-10-17T09:22:46.582Z,11.03
2022-10-17T09:25:15.961Z,11.33
2022-10-17T09:27:45.333Z,11.33
2022-10-17T09:30:40.073Z,11.33
2022-10-17T09:33:28.203Z,10.43
2022-10-17T09:36:04.358Z,11.10
2022-10-17T09:38:36.671Z,10.93
2022-10-17T09:41:19.976Z,11.57
2022-10-17T09:43:54.610Z,9.40
2022-10-17T09:46:24.493Z,10.73
2022-10-17T09:48:54.028Z,10.07
2022-10-17T09:51:25.960Z,9.33
2022-10-17T09:53:55.940Z,9.13
2022-10-17T09:56:24.518Z,10.03
2022-10-17T09:58:54.638Z,10.27
2022-10-17T10:01:24.513Z,10.57
2022-10-17T10:04:08.130Z,10.00
2022-10-17T10:06:42.193Z,9.70
2022-10-17T10:09:22.366Z,9.13
2022-10-17T10:11:52.237Z,9.90
2022-10-17T10:14:22.625Z,8.53
2022-10-17T10:16:54.887Z,8.00
2022-10-17T10:19:23.888Z,8.47
2022-10-17T10:21:58.512Z,7.90
2022-10-17T10:24:30.805Z,8.17
2022-10-17T10:27:00.376Z,7.77
2022-10-17T10:29:31.031Z,7.73
2022-10-17T10:32:00.838Z,6.63
2022-10-17T10:34:37.867Z,6.50
2022-10-17T10:37:08.125Z,6.20
2022-10-17T10:39:40.956Z,6.20
2022-10-17T10:42:10.117Z,6.20
2022-10-17T10:44:39.411Z,5.83
2022-10-17T10:47:24.743Z,5.57
2022-10-17T10:49:53.815Z,5.40
2022-10-17T10:52:26.508Z,5.40
2022-10-17T10:55:00.568Z,4.90
2022-10-17T10:57:30.339Z,4.87
2022-10-17T11:00:00.731Z,4.90
2022-10-17T11:02:29.892Z,4.70
2022-10-17T11:05:00.043Z,4.20
2022-10-17T11:07:34.185Z,3.90
2022-10-17T11:10:05.720Z,4.00
2022-10-17T11:12:35.631Z,3.90
2022-10-17T11:15:07.449Z,4.17
2022-10-17T11:17:38.511Z,4.27
2022-10-17T11:20:16.562Z,3.77
2022-10-17T11:22:46.774Z,3.90
2022-10-17T11:25:17.837Z,3.87
2022-10-17T11:27:46.814Z,4.40
2022-10-17T11:30:15.710Z,3.70
2022-10-17T11:32:45.096Z,3.77
2022-10-17T11:35:17.685Z,3.80
2022-10-17T11:37:49.532Z,4.27
2022-10-17T11:40:23.595Z,4.10
2022-10-17T11:42:54.737Z,4.00
2022-10-17T11:45:23.954Z,4.50
2022-10-17T11:47:55.776Z,4.20
2022-10-17T11:53:15.818Z,4.90
2022-10-17T11:55:44.514Z,4.87
2022-10-17T11:58:19.344Z,4.90
2022-10-17T12:00:51.974Z,5.20
2022-10-17T12:03:34.443Z,5.00
2022-10-17T12:06:05.230Z,4.93
2022-10-17T12:08:37.840Z,5.13
2022-10-17T12:11:08.725Z,4.60
2022-10-17T12:13:53.283Z,4.37
2022-10-17T12:19:28.816Z,4.07
2022-10-17T12:21:58.335Z,4.37
2022-10-17T12:24:33.240Z,4.07
2022-10-17T12:27:16.981Z,3.90
2022-10-17T12:29:49.967Z,3.43
2022-10-17T12:32:18.482Z,4.07
2022-10-17T12:34:54.303Z,3.60
2022-10-17T12:37:41.475Z,3.83
2022-10-17T12:40:25.213Z,3.87
2022-10-17T12:42:54.934Z,3.93
2022-10-17T12:45:41.815Z,4.30
2022-10-17T12:48:11.344Z,3.43
2022-10-17T12:51:17.760Z,3.80
2022-10-17T12:53:48.486Z,4.20
2022-10-17T12:56:17.760Z,4.37
2022-10-17T12:58:49.428Z,3.87
2022-10-17T13:01:24.225Z,4.30
2022-10-17T13:03:54.129Z,3.30
2022-10-17T13:06:23.372Z,3.00
2022-10-17T13:08:57.713Z,3.47
2022-10-17T13:11:29.101Z,2.90
2022-10-17T13:13:59.425Z,2.87
2022-10-17T13:16:31.609Z,2.73
2022-10-17T13:19:01.473Z,2.67
2022-10-17T13:21:31.078Z,2.40
2022-10-17T13:23:59.473Z,2.20
2022-10-17T13:26:31.655Z,2.30
2022-10-17T13:29:04.881Z,2.70
2022-10-17T13:31:33.765Z,2.67
2022-10-17T13:34:02.791Z,2.87
2022-10-17T13:36:31.562Z,2.60
2022-10-17T13:38:59.970Z,2.40
2022-10-17T13:41:35.910Z,2.93
2022-10-17T13:44:09.485Z,2.90
2022-10-17T13:46:39.564Z,2.73
2022-10-17T13:49:17.450Z,2.73
2022-10-17T13:51:46.320Z,2.70
2022-10-17T13:54:21.494Z,3.23
2022-10-17T13:56:49.950Z,3.07
2022-10-17T13:59:24.318Z,2.70
2022-10-17T14:01:52.714Z,3.33
2022-10-17T14:04:20.961Z,3.20
2022-10-17T14:06:49.635Z,3.23
2022-10-17T14:09:19.969Z,3.13
2022-10-17T14:11:48.406Z,2.87
2022-10-17T14:14:18.401Z,2.77
2022-10-17T14:16:48.184Z,3.00
2022-10-17T14:19:25.746Z,2.80
2022-10-17T14:21:55.014Z,3.07
2022-10-17T14:24:29.261Z,3.10
2022-10-17T14:26:58.905Z,3.07
2022-10-17T14:29:27.795Z,2.87
2022-10-17T14:32:01.688Z,3.13
2022-10-17T14:34:30.989Z,3.17
2022-10-17T14:36:59.345Z,2.77
2022-10-17T14:39:28.118Z,2.80
2022-10-17T14:41:59.638Z,2.80
2022-10-17T14:44:31.297Z,2.73
2022-10-17T14:47:06.047Z,2.90
2022-10-17T14:49:38.698Z,2.73
2022-10-17T14:52:26.056Z,2.80
2022-10-17T14:54:54.371Z,2.43
2022-10-17T14:57:25.259Z,3.03
2022-10-17T14:59:55.108Z,2.87
2022-10-17T15:02:25.449Z,2.23
2022-10-17T15:04:54.077Z,3.47
2022-10-17T15:07:23.654Z,2.90
2022-10-17T15:09:54.255Z,3.10
2022-10-17T15:12:23.418Z,3.27
2022-10-17T15:14:51.840Z,3.40
2022-10-17T15:17:21.210Z,3.13
2022-10-17T15:19:51.539Z,2.97
2022-10-17T15:22:19.937Z,2.90
2022-10-17T15:24:48.438Z,3.07
2022-10-17T15:27:17.372Z,3.13
2022-10-17T15:29:45.702Z,3.20
2022-10-17T15:32:14.066Z,3.00
2022-10-17T15:34:42.450Z,3.10
2022-10-17T15:37:17.204Z,2.87
2022-10-17T15:39:48.100Z,3.60
2022-10-17T15:42:16.404Z,3.23
2022-10-17T15:44:45.201Z,2.53
2022-10-17T15:47:14.192Z,2.77
2022-10-17T15:49:43.476Z,3.07
2022-10-17T15:52:11.827Z,2.77
2022-10-17T15:54:41.712Z,2.80
2022-10-17T15:57:10.821Z,2.97
2022-10-17T15:59:39.154Z,2.80
2022-10-17T16:02:10.375Z,2.90
2022-10-17T16:04:38.740Z,3.07
2022-10-17T16:07:08.123Z,2.50
2022-10-17T16:09:37.334Z,2.70
2022-10-17T16:12:07.542Z,2.90
2022-10-17T16:14:36.091Z,2.63
2022-10-17T16:17:04.578Z,2.63
2022-10-17T16:19:34.183Z,2.40
2022-10-17T16:22:04.517Z,2.80
2022-10-17T16:24:34.874Z,2.37
2022-10-17T16:27:21.186Z,3.07
2022-10-17T16:29:51.025Z,3.37
2022-10-17T16:32:19.350Z,2.70
2022-10-17T16:34:47.695Z,2.73
2022-10-17T16:37:16.175Z,3.00
2022-10-17T16:39:49.010Z,2.33
2022-10-17T16:42:17.470Z,2.40
2022-10-17T16:44:48.703Z,2.50
2022-10-17T16:47:19.785Z,2.37
2022-10-17T16:49:49.240Z,2.20
2022-10-17T16:52:18.577Z,2.03
2022-10-17T16:54:56.823Z,2.60
2022-10-17T16:57:25.296Z,2.13
2022-10-17T16:59:53.708Z,2.00
2022-10-17T17:02:23.417Z,2.57
2022-10-17T17:04:51.752Z,2.43
2022-10-17T17:07:21.775Z,2.37
2022-10-17T17:09:50.159Z,2.60
2022-10-17T17:12:18.540Z,2.07
2022-10-17T17:14:46.901Z,2.47
2022-10-17T17:17:24.536Z,2.30
2022-10-17T17:20:05.376Z,2.50
2022-10-17T17:22:34.624Z,2.30
2022-10-17T17:25:05.063Z,2.73
2022-10-17T17:27:39.604Z,2.20
2022-10-17T17:30:13.440Z,2.17
2022-10-17T17:32:50.278Z,2.40
2022-10-17T17:35:27.856Z,2.37
2022-10-17T17:37:59.708Z,2.40
2022-10-17T17:40:28.296Z,2.00
2022-10-17T17:45:29.906Z,3.10
2022-10-17T17:47:59.653Z,3.60
2022-10-17T17:50:31.727Z,2.90
2022-10-17T17:53:00.777Z,2.90
2022-10-17T17:55:29.117Z,2.60
2022-10-17T17:57:57.750Z,2.70
2022-10-17T18:00:26.239Z,2.77
2022-10-17T18:02:55.029Z,3.30
2022-10-17T18:05:23.641Z,2.70
2022-10-17T18:07:53.987Z,3.13
2022-10-17T18:10:22.494Z,3.63
2022-10-17T18:12:50.926Z,2.97
2022-10-17T18:15:19.436Z,3.23
2022-10-17T18:17:47.744Z,3.20
2022-10-17T18:20:16.118Z,3.30
2022-10-17T18:22:44.780Z,3.00
2022-10-17T18:25:15.564Z,3.50
2022-10-17T18:27:44.241Z,3.20
2022-10-17T18:30:14.205Z,3.27
2022-10-17T18:32:42.795Z,3.30
2022-10-17T18:35:11.561Z,3.33
2022-10-17T18:37:42.865Z,3.07
2022-10-17T18:40:11.644Z,3.70
2022-10-17T18:42:54.319Z,3.33
2022-10-17T18:45:23.107Z,2.97
2022-10-17T18:47:52.757Z,3.10
2022-10-17T18:50:21.430Z,2.87
2022-10-17T18:52:50.719Z,3.63
2022-10-17T18:55:20.592Z,3.20
2022-10-17T18:57:50.380Z,3.63
2022-10-17T19:00:19.027Z,2.87
2022-10-17T19:02:47.538Z,3.20
2022-10-17T19:05:16.817Z,3.13
2022-10-17T19:07:45.253Z,2.77
2022-10-17T19:10:13.990Z,3.23
2022-10-17T19:12:42.731Z,3.53
2022-10-17T19:15:12.651Z,2.90
2022-10-17T19:17:41.090Z,2.80
2022-10-17T19:20:13.788Z,3.13
2022-10-17T19:22:46.433Z,3.20
2022-10-17T19:25:19.294Z,3.60
2022-10-17T19:27:47.709Z,3.40
2022-10-17T19:30:18.307Z,4.20
2022-10-17T19:32:47.891Z,3.20
2022-10-17T19:35:18.007Z,3.30
2022-10-17T19:37:46.889Z,3.90
2022-10-17T19:40:24.241Z,4.03
2022-10-17T19:42:53.077Z,3.53
2022-10-17T19:45:26.712Z,3.80
2022-10-17T19:48:02.696Z,3.90
2022-10-17T19:50:31.727Z,4.10
2022-10-17T19:53:02.051Z,4.27
2022-10-17T19:55:30.830Z,4.27
2022-10-17T19:58:03.531Z,4.50
2022-10-17T20:00:36.818Z,4.70
2022-10-17T20:03:05.307Z,4.20
2022-10-17T20:05:33.727Z,4.50
2022-10-17T20:08:02.119Z,3.93
2022-10-17T20:10:30.863Z,4.20
2022-10-17T20:13:09.609Z,4.77
2022-10-17T20:15:39.329Z,4.20
2022-10-17T20:18:08.072Z,4.63
2022-10-17T20:20:36.627Z,4.67
2022-10-17T20:23:05.235Z,5.07
2022-10-17T20:25:34.552Z,5.03
2022-10-17T20:28:03.035Z,4.47
2022-10-17T20:30:31.296Z,4.40
2022-10-17T20:33:01.021Z,4.57
2022-10-17T20:35:29.397Z,4.60
2022-10-17T20:37:57.831Z,4.33
2022-10-17T20:40:41.506Z,5.30
2022-10-17T20:43:09.921Z,4.73
2022-10-17T20:45:50.860Z,5.27
2022-10-17T20:48:21.383Z,4.23
2022-10-17T20:50:49.951Z,4.90
2022-10-17T20:53:36.067Z,4.30
2022-10-17T20:56:05.633Z,5.10
2022-10-17T20:58:33.994Z,5.00
2022-10-17T21:01:06.342Z,4.83
2022-10-17T21:03:39.834Z,4.57
2022-10-17T21:06:11.013Z,4.87
2022-10-17T21:08:39.506Z,5.33
2022-10-17T21:11:08.921Z,4.80
2022-10-17T21:13:37.273Z,5.00
2022-10-17T21:16:06.463Z,5.07
2022-10-17T21:18:34.908Z,4.83
2022-10-17T21:21:11.817Z,5.03
2022-10-17T21:23:40.178Z,4.60
2022-10-17T21:26:09.831Z,5.10
2022-10-17T21:28:38.628Z,5.40
2022-10-17T21:31:13.957Z,5.13
2022-10-17T21:33:43.037Z,5.83
2022-10-17T21:36:13.552Z,6.30
2022-10-17T21:38:42.059Z,5.00
2022-10-17T21:41:10.584Z,5.53
2022-10-17T21:43:39.134Z,4.83
2022-10-17T21:46:08.046Z,4.40
2022-10-17T21:48:36.428Z,5.07
2022-10-17T21:51:06.280Z,3.93
2022-10-17T21:53:37.638Z,5.30
2022-10-17T21:56:06.759Z,5.23
2022-10-17T21:58:35.276Z,5.03
2022-10-17T22:01:06.981Z,4.90
2022-10-17T22:03:35.671Z,4.50
2022-10-17T22:06:12.971Z,5.00
2022-10-17T22:08:53.835Z,4.93
2022-10-17T22:11:22.621Z,5.10
2022-10-17T22:13:54.771Z,5.23
2022-10-17T22:16:23.091Z,4.87
2022-10-17T22:18:51.572Z,5.20
2022-10-17T22:21:20.464Z,5.20
2022-10-17T22:23:49.769Z,5.50
2022-10-17T22:26:19.461Z,5.10
2022-10-17T22:28:47.922Z,5.30
2022-10-17T22:31:16.291Z,5.03
2022-10-17T22:33:44.817Z,5.40
2022-10-17T22:36:13.709Z,5.87
2022-10-17T22:38:42.153Z,5.63
2022-10-17T22:41:11.213Z,4.73
2022-10-17T22:43:41.045Z,4.87
2022-10-17T22:46:09.764Z,5.03
2022-10-17T22:48:38.579Z,5.37
2022-10-17T22:51:07.018Z,4.60
2022-10-17T22:53:37.340Z,5.83
2022-10-17T22:56:06.996Z,5.47
2022-10-17T22:58:35.353Z,5.60
2022-10-17T23:01:05.479Z,6.50
2022-10-17T23:03:33.850Z,6.07
2022-10-17T23:06:02.270Z,6.27
2022-10-17T23:08:30.593Z,6.53
2022-10-17T23:10:58.879Z,6.03
2022-10-17T23:13:27.242Z,6.27
2022-10-17T23:15:55.979Z,6.03
2022-10-17T23:18:26.008Z,5.97
2022-10-17T23:20:54.343Z,5.57
2022-10-17T23:23:22.734Z,5.53
2022-10-17T23:25:51.587Z,6.17
2022-10-17T23:28:19.967Z,5.60
2022-10-17T23:30:48.413Z,5.60
2022-10-17T23:33:16.875Z,5.53
2022-10-17T23:35:46.593Z,5.27
2022-10-17T23:38:15.050Z,5.90
2022-10-17T23:40:43.417Z,5.93
2022-10-17T23:43:11.753Z,5.87
2022-10-17T23:48:13.397Z,5.63
2022-10-17T23:50:41.922Z,6.27
2022-10-17T23:53:11.682Z,6.40
2022-10-17T23:55:40.136Z,6.00
2022-10-17T23:58:09.040Z,5.90
